Soaring Guidance
Issued by NWS Reno, NV

Home | Current Version | Previous Version | Text Only | Print | Product List | Glossary On
Versions: 1 2 3 4 5 6 7
000
UXUS97 KREV 191334
SRGREV

SOARING FORECAST
NATIONAL WEATHER SERVICE - RENO NV
700 AM PDT TUE SEP 19 2017

THIS SOARING FORECAST IS FOR THE EASTERN SIERRA AND WESTERN NEVADA
WITH SPECIFIC INDICES FOR THE GREATER RENO AREA.

THIS FORECAST IS PREPARED DAILY BY 700 AM AND IS NOT UPDATED.

FOR CURRENT FLIGHT CONDITIONS...FORECASTS...AND ADVISORIES...ACCESS
YOUR LOCAL BRIEFING OUTLET OR FLIGHT SERVICE STATION.

*******************************************************************
FORECASTED LOCAL INDICES FOR RENO:        TODAY     YESTERDAY
FORECASTED MAX TEMP AT RENO (DEG F).....     71          76
FORECASTED TRIGGER TEMPERATURE (DEG F)..     56          66
   EXCEEDED YESTERDAY BY 955 AM PDT
FORECASTED MAXIMUM ALTITUDE (FT MSL)....  12800       13200
FORECASTED SOARING INDEX (FPM)..........    534         696
FORECASTED K-INDEX.........VALID 18Z....     13          20
FORECASTED K-INDEX.........VALID 00Z....     22          11
FORECASTED LIFTED INDEX....VALID 18Z....     12           8
FORECASTED LIFTED INDEX....VALID 00Z....      8           4

AFTERNOON WINDS ALOFT FORECAST
MSL (FT) WIND/TEMP
9000  2713/+04
10000 2716/+02
12000 2922/-01
14000 2927/-03
16000 2933/-06
18000 2950/-09
24000 2964/-20
30000 2880/-35
34000 2883/-45
39000 2885/-55

SLIDE MOUNTAIN DATA:
     DATE       TIME     TEMP  DEWPT   RH         WIND (MPH)
                        (F)   (F)           | DIR  SPEED GUST
2017-09-19    05:50      31    19     49    | 246   52   66
2017-09-19    05:30      31    20     52    | 246   51   67
2017-09-19    05:20      31    20     52    | 247   45   63
2017-09-19    05:00      32    19     48    | 247   48   60

SIERRA CREST 8700 FT DATA:
   DATE     TIME  TEMP  RH         WIND
                            DIR   SPEED   GUST
2017-09-19 0600   32   97   225     40     55
2017-09-19 0545   32   96   238     42     54
2017-09-19 0530   32   94   252     42     55
2017-09-19 0515   32   95   245     43     55

RENO TAF FORECAST:
KRNO 191126Z 1912/2012 32009KT P6SM SCT200
     FM191900 35011KT P6SM FEW090 SCT200
     FM200400 29009KT P6SM SCT200
     FM201000 32009KT P6SM SCT100 BKN200

CARSON CITY TAF FORECAST:
KCXP 191126Z 1912/2012 29006KT P6SM SCT200
     FM192000 34009KT P6SM SCT080 SCT200
     FM200300 30006KT P6SM SCT200
     FM201100 31011KT P6SM SCT090 BKN200

OUTLOOK FOR THE RENO-CARSON CITY-MINDEN AREA:
.WEDNESDAY...PARTLY CLOUDY IN THE MORNING THEN BECOMING MOSTLY
CLOUDY. HIGHS 68 TO 73. SOUTHWEST WINDS AROUND 10 MPH INCREASING
TO 20 TO 30 MPH WITH GUSTS UP TO 45 MPH IN THE AFTERNOON.

SUNRISE AND SUNSET
SEPTEMBER 19 2017.....SUNRISE   644 AM PDT   SUNSET   701 PM PDT
SEPTEMBER 20 2017.....SUNRISE   645 AM PDT   SUNSET   659 PM PDT



USA.gov is the U.S. government's official web portal to all federal, state and local government web resources and services.